createdAt,value
2023-02-11T00:01:18.448Z,12.31
2023-02-11T00:03:45.152Z,11.62
2023-02-11T00:06:13.829Z,13.11
2023-02-11T00:08:47.777Z,12.89
2023-02-11T00:11:14.391Z,13.22
2023-02-11T00:13:49.130Z,12.86
2023-02-11T00:16:15.675Z,11.31
2023-02-11T00:18:42.183Z,10.74
2023-02-11T00:21:08.641Z,11.40
2023-02-11T00:23:35.153Z,10.84
2023-02-11T00:26:01.593Z,11.22
2023-02-11T00:28:28.291Z,11.79
2023-02-11T00:30:54.966Z,12.01
2023-02-11T00:33:21.503Z,11.99
2023-02-11T00:35:48.179Z,11.93
2023-02-11T00:38:14.840Z,11.07
2023-02-11T00:40:41.326Z,12.06
2023-02-11T00:43:07.843Z,16.71
2023-02-11T00:45:34.356Z,16.37
2023-02-11T00:48:00.783Z,13.64
2023-02-11T00:50:27.249Z,13.99
2023-02-11T00:52:53.706Z,14.47
2023-02-11T00:55:20.390Z,16.32
2023-02-11T00:57:46.917Z,17.37
2023-02-11T01:00:18.906Z,17.85
2023-02-11T01:02:45.453Z,17.96
2023-02-11T01:05:12.717Z,17.09
2023-02-11T01:07:39.270Z,15.96
2023-02-11T01:10:05.777Z,15.93
2023-02-11T01:12:34.537Z,15.11
2023-02-11T01:20:25.804Z,13.69
2023-02-11T01:25:32.505Z,15.03
2023-02-11T01:30:49.198Z,16.04
2023-02-11T01:33:17.093Z,15.80
2023-02-11T01:35:43.554Z,14.49
2023-02-11T01:38:09.932Z,15.95
2023-02-11T01:40:39.919Z,16.71
2023-02-11T01:43:06.501Z,15.44
2023-02-11T01:45:40.617Z,16.54
2023-02-11T01:48:13.437Z,16.97
2023-02-11T01:50:39.931Z,17.14
2023-02-11T01:53:06.417Z,17.32
2023-02-11T01:55:32.932Z,15.37
2023-02-11T01:57:59.489Z,15.25
2023-02-11T02:00:26.389Z,15.38
2023-02-11T02:02:52.930Z,15.35
2023-02-11T02:05:19.452Z,15.61
2023-02-11T02:07:45.905Z,15.32
2023-02-11T02:10:12.442Z,15.42
2023-02-11T02:12:38.962Z,15.10
2023-02-11T02:15:05.750Z,15.72
2023-02-11T02:17:36.403Z,15.81
2023-02-11T02:20:12.010Z,16.02
2023-02-11T02:22:38.537Z,15.93
2023-02-11T02:25:05.077Z,14.42
2023-02-11T02:27:31.636Z,13.93
2023-02-11T02:29:58.121Z,15.24
2023-02-11T02:32:24.579Z,14.54
2023-02-11T02:34:51.040Z,15.88
2023-02-11T02:37:17.572Z,14.06
2023-02-11T02:39:44.056Z,13.90
2023-02-11T02:42:10.493Z,13.28
2023-02-11T02:44:37.192Z,13.04
2023-02-11T02:47:23.627Z,12.74
2023-02-11T02:49:50.036Z,12.11
2023-02-11T02:52:16.404Z,11.44
2023-02-11T02:54:45.205Z,11.07
2023-02-11T02:57:14.824Z,12.05
2023-02-11T02:59:41.379Z,13.23
2023-02-11T03:02:07.884Z,13.46
2023-02-11T03:04:34.354Z,13.36
2023-02-11T03:07:00.741Z,13.66
2023-02-11T03:09:27.128Z,13.87
2023-02-11T03:12:05.178Z,13.31
2023-02-11T03:14:31.696Z,13.84
2023-02-11T03:17:00.656Z,13.99
2023-02-11T03:19:27.170Z,12.74
2023-02-11T03:21:53.598Z,12.50
2023-02-11T03:24:20.051Z,12.20
2023-02-11T03:26:46.394Z,11.32
2023-02-11T03:29:14.185Z,10.47
2023-02-11T03:31:40.772Z,9.16
2023-02-11T03:34:07.402Z,9.69
2023-02-11T03:36:33.819Z,10.52
2023-02-11T03:39:00.313Z,9.72
2023-02-11T03:41:26.713Z,9.34
2023-02-11T03:43:57.186Z,9.14
2023-02-11T03:46:23.806Z,8.58
2023-02-11T03:48:50.524Z,9.09
2023-02-11T03:51:16.979Z,9.60
2023-02-11T03:53:43.308Z,10.03
2023-02-11T03:56:09.666Z,11.36
2023-02-11T03:58:36.026Z,13.49
2023-02-11T04:01:02.384Z,12.51
2023-02-11T04:03:28.857Z,11.51
2023-02-11T04:05:55.251Z,11.22
2023-02-11T04:08:21.593Z,10.51
2023-02-11T04:10:47.913Z,10.21
2023-02-11T04:13:14.437Z,10.16
2023-02-11T04:15:40.841Z,10.09
2023-02-11T04:18:07.166Z,11.26
2023-02-11T04:20:33.615Z,12.10
2023-02-11T04:22:59.961Z,12.31
2023-02-11T04:25:26.350Z,11.57
2023-02-11T04:27:52.687Z,11.17
2023-02-11T04:30:19.089Z,11.01
2023-02-11T04:32:45.412Z,9.89
2023-02-11T04:35:11.739Z,9.81
2023-02-11T04:37:38.080Z,9.24
2023-02-11T04:40:04.586Z,9.54
2023-02-11T04:42:30.931Z,10.24
2023-02-11T04:44:57.256Z,10.08
2023-02-11T04:47:23.589Z,9.87
2023-02-11T04:49:49.960Z,9.90
2023-02-11T04:52:16.312Z,10.63
2023-02-11T04:54:42.725Z,10.93
2023-02-11T04:57:09.091Z,11.63
2023-02-11T04:59:35.443Z,11.41
2023-02-11T05:02:03.341Z,12.15
2023-02-11T05:04:32.300Z,12.21
2023-02-11T05:09:39.026Z,11.68
2023-02-11T05:12:05.343Z,11.25
2023-02-11T05:14:31.675Z,13.47
2023-02-11T05:16:58.147Z,24.80
2023-02-11T05:19:24.511Z,14.62
2023-02-11T05:22:02.229Z,13.31
2023-02-11T05:24:29.598Z,10.62
2023-02-11T05:26:55.922Z,10.82
2023-02-11T05:29:22.248Z,9.01
2023-02-11T05:31:48.762Z,9.81
2023-02-11T05:34:15.087Z,9.52
2023-02-11T05:36:41.392Z,11.17
2023-02-11T05:39:07.718Z,12.29
2023-02-11T05:41:46.201Z,11.96
2023-02-11T05:44:13.156Z,11.72
2023-02-11T05:46:39.668Z,11.00
2023-02-11T05:49:06.019Z,10.76
2023-02-11T05:51:32.496Z,10.60
2023-02-11T05:54:01.640Z,10.63
2023-02-11T05:56:28.095Z,11.25
2023-02-11T05:58:54.587Z,11.15
2023-02-11T06:01:21.062Z,11.00
2023-02-11T06:03:47.674Z,10.39
2023-02-11T06:06:14.212Z,11.11
2023-02-11T06:08:40.734Z,10.42
2023-02-11T06:11:07.260Z,10.31
2023-02-11T06:13:33.663Z,11.06
2023-02-11T06:16:00.210Z,11.71
2023-02-11T06:18:26.760Z,11.63
2023-02-11T06:20:53.114Z,11.21
2023-02-11T06:23:19.543Z,10.86
2023-02-11T06:26:03.091Z,10.77
2023-02-11T06:28:29.537Z,10.13
2023-02-11T06:30:55.998Z,10.62
2023-02-11T06:33:22.454Z,10.26
2023-02-11T06:35:50.081Z,11.88
2023-02-11T06:38:16.758Z,11.54
2023-02-11T06:40:43.271Z,11.03
2023-02-11T06:43:09.789Z,11.49
2023-02-11T06:45:36.436Z,14.08
2023-02-11T06:48:02.997Z,17.53
2023-02-11T06:50:29.483Z,16.46
2023-02-11T06:52:55.862Z,13.40
2023-02-11T06:55:22.236Z,11.21
2023-02-11T06:57:50.822Z,10.94
2023-02-11T07:00:17.315Z,10.75
2023-02-11T07:02:43.700Z,10.22
2023-02-11T07:05:10.099Z,10.33
2023-02-11T07:07:36.603Z,10.71
2023-02-11T07:10:03.444Z,10.14
2023-02-11T07:12:29.834Z,10.26
2023-02-11T07:14:56.361Z,10.67
2023-02-11T07:17:22.835Z,10.85
2023-02-11T07:19:49.292Z,10.63
2023-02-11T07:22:21.006Z,10.74
2023-02-11T07:24:49.762Z,11.03
2023-02-11T07:27:16.252Z,11.18
2023-02-11T07:29:45.147Z,11.35
2023-02-11T07:32:11.516Z,11.14
2023-02-11T07:34:38.995Z,12.01
2023-02-11T07:37:05.583Z,12.23
2023-02-11T07:39:32.102Z,12.93
2023-02-11T07:41:58.598Z,12.28
2023-02-11T07:44:25.107Z,12.06
2023-02-11T07:46:51.654Z,11.23
2023-02-11T07:49:18.094Z,10.84
2023-02-11T07:51:44.616Z,10.79
2023-02-11T07:54:11.100Z,10.49
2023-02-11T07:56:37.610Z,10.26
2023-02-11T07:59:04.085Z,10.81
2023-02-11T08:01:30.589Z,10.29
2023-02-11T08:04:01.576Z,10.60
2023-02-11T08:06:28.389Z,10.00
2023-02-11T08:08:54.998Z,10.57
2023-02-11T08:11:21.534Z,10.72
2023-02-11T08:13:48.148Z,10.73
2023-02-11T08:16:14.743Z,11.08
2023-02-11T08:18:41.314Z,11.11
2023-02-11T08:21:07.859Z,11.13
2023-02-11T08:23:34.336Z,11.08
2023-02-11T08:26:00.864Z,11.14
2023-02-11T08:28:27.490Z,11.37
2023-02-11T08:30:54.063Z,11.56
2023-02-11T08:33:20.502Z,12.21
2023-02-11T08:35:47.028Z,12.00
2023-02-11T08:38:13.519Z,12.20
2023-02-11T08:40:39.991Z,12.58
2023-02-11T08:43:08.187Z,12.56
2023-02-11T08:45:35.507Z,13.66
2023-02-11T08:50:52.624Z,12.99
2023-02-11T08:58:40.731Z,14.91
2023-02-11T09:01:07.258Z,14.57
2023-02-11T09:03:33.766Z,14.39
2023-02-11T09:06:00.289Z,14.51
2023-02-11T09:08:27.764Z,12.95
2023-02-11T09:10:54.283Z,13.20
2023-02-11T09:13:26.715Z,13.39
2023-02-11T09:15:53.242Z,13.44
2023-02-11T09:21:03.837Z,13.40
2023-02-11T09:23:30.401Z,13.55
2023-02-11T09:25:56.950Z,14.78
2023-02-11T09:28:31.827Z,15.26
2023-02-11T09:30:58.411Z,14.72
2023-02-11T09:33:24.991Z,13.95
2023-02-11T09:35:51.489Z,13.72
2023-02-11T09:38:18.368Z,14.26
2023-02-11T09:40:45.273Z,14.76
2023-02-11T09:43:13.385Z,14.22
2023-02-11T09:45:39.864Z,14.11
2023-02-11T09:48:06.982Z,14.02
2023-02-11T09:50:40.917Z,14.15
2023-02-11T09:53:07.387Z,14.66
2023-02-11T09:55:33.864Z,14.63
2023-02-11T09:58:00.358Z,13.65
2023-02-11T10:00:26.757Z,14.20
2023-02-11T10:02:53.443Z,14.42
2023-02-11T10:05:19.856Z,14.85
2023-02-11T10:07:46.336Z,14.69
2023-02-11T10:10:12.787Z,14.74
2023-02-11T10:12:39.247Z,14.87
2023-02-11T10:15:05.741Z,15.17
2023-02-11T10:17:32.250Z,15.98
2023-02-11T10:19:58.707Z,15.64
2023-02-11T10:22:25.293Z,14.88
2023-02-11T10:24:59.170Z,15.58
2023-02-11T10:27:25.560Z,15.80
2023-02-11T10:29:51.964Z,15.71
2023-02-11T10:32:18.462Z,16.12
2023-02-11T10:34:44.852Z,16.27
2023-02-11T10:37:11.318Z,15.98
2023-02-11T10:39:37.715Z,16.04
2023-02-11T10:42:04.457Z,16.65
2023-02-11T10:44:33.119Z,16.72
2023-02-11T10:47:00.867Z,19.17
2023-02-11T10:49:27.403Z,23.71
2023-02-11T10:51:53.837Z,24.20
2023-02-11T10:54:20.480Z,23.21
2023-02-11T10:56:46.978Z,24.24
2023-02-11T10:59:24.066Z,24.67
2023-02-11T11:01:50.655Z,24.38
2023-02-11T11:04:18.450Z,23.13
2023-02-11T11:06:44.959Z,23.10
2023-02-11T11:09:12.306Z,23.19
2023-02-11T11:11:38.790Z,23.89
2023-02-11T11:14:05.300Z,23.71
2023-02-11T11:16:31.760Z,24.03
2023-02-11T11:18:58.450Z,24.31
2023-02-11T11:21:24.900Z,24.32
2023-02-11T11:26:31.628Z,25.08
2023-02-11T11:28:58.063Z,23.41
2023-02-11T11:31:27.338Z,21.47
2023-02-11T11:33:54.379Z,20.48
2023-02-11T11:36:20.883Z,20.62
2023-02-11T11:38:56.473Z,21.43
2023-02-11T11:41:22.873Z,21.58
2023-02-11T11:43:49.434Z,23.84
2023-02-11T11:46:15.979Z,22.45
2023-02-11T11:48:42.456Z,22.66
2023-02-11T11:51:08.962Z,22.61
2023-02-11T11:53:35.596Z,23.73
2023-02-11T11:56:02.084Z,23.17
2023-02-11T11:58:28.529Z,23.23
2023-02-11T12:00:55.038Z,22.63
2023-02-11T12:03:21.789Z,22.81
2023-02-11T12:05:49.003Z,22.34
2023-02-11T12:08:18.023Z,22.03
2023-02-11T12:10:56.778Z,21.53
2023-02-11T12:13:23.374Z,21.88
2023-02-11T12:15:49.892Z,22.40
2023-02-11T12:18:16.427Z,23.16
2023-02-11T12:20:42.946Z,24.07
2023-02-11T12:23:09.433Z,24.70
2023-02-11T12:25:35.846Z,28.71
2023-02-11T12:28:02.431Z,31.31
2023-02-11T12:30:29.028Z,32.65
2023-02-11T12:32:55.539Z,34.16
2023-02-11T12:35:21.975Z,34.51
2023-02-11T12:37:48.361Z,33.91
2023-02-11T12:40:14.736Z,34.07
2023-02-11T12:42:42.155Z,35.99
2023-02-11T12:45:08.631Z,36.36
2023-02-11T12:47:36.232Z,37.98
2023-02-11T12:50:08.087Z,40.24
2023-02-11T12:52:34.818Z,40.64
2023-02-11T12:55:01.230Z,40.63
2023-02-11T12:57:27.949Z,39.99
2023-02-11T12:59:54.525Z,38.66
2023-02-11T13:02:32.292Z,37.68
2023-02-11T13:04:59.233Z,35.92
2023-02-11T13:07:25.750Z,36.95
2023-02-11T13:09:59.569Z,37.44
2023-02-11T13:12:26.135Z,41.29
2023-02-11T13:14:52.701Z,42.37
2023-02-11T13:17:19.286Z,41.09
2023-02-11T13:19:55.183Z,41.86
2023-02-11T13:22:21.603Z,40.52
2023-02-11T13:25:01.242Z,39.13
2023-02-11T13:27:27.790Z,37.20
2023-02-11T13:29:54.360Z,36.12
2023-02-11T13:32:21.160Z,36.04
2023-02-11T13:34:47.621Z,34.29
2023-02-11T13:37:14.101Z,33.77
2023-02-11T13:39:40.582Z,33.03
2023-02-11T13:42:07.078Z,34.16
2023-02-11T13:44:33.612Z,34.84
2023-02-11T13:47:00.130Z,36.98
2023-02-11T13:49:26.649Z,37.95
2023-02-11T13:51:53.151Z,36.55
2023-02-11T13:54:20.678Z,37.49
2023-02-11T13:56:47.310Z,37.42
2023-02-11T13:59:13.836Z,36.98
2023-02-11T14:01:40.343Z,37.58
2023-02-11T14:04:06.847Z,36.53
2023-02-11T14:06:33.346Z,35.96
2023-02-11T14:08:59.849Z,36.15
2023-02-11T14:11:26.352Z,36.58
2023-02-11T14:13:54.101Z,36.46
2023-02-11T14:16:36.395Z,35.97
2023-02-11T14:19:03.695Z,35.17
2023-02-11T14:21:30.136Z,35.51
2023-02-11T14:23:56.792Z,35.47
2023-02-11T14:26:23.227Z,35.44
2023-02-11T14:28:49.700Z,36.15
2023-02-11T14:31:16.231Z,36.10
2023-02-11T14:33:42.823Z,35.98
2023-02-11T14:36:09.324Z,36.65
2023-02-11T14:38:36.142Z,36.66
2023-02-11T14:41:02.669Z,35.12
2023-02-11T14:43:29.701Z,35.68
2023-02-11T14:45:56.376Z,35.35
2023-02-11T14:48:23.213Z,36.00
2023-02-11T14:50:50.893Z,35.15
2023-02-11T14:53:17.608Z,34.98
2023-02-11T14:55:44.128Z,35.07
2023-02-11T14:58:10.695Z,33.63
2023-02-11T15:00:37.179Z,36.83
2023-02-11T15:03:03.796Z,38.30
2023-02-11T15:05:30.315Z,35.92
2023-02-11T15:07:58.089Z,37.51
2023-02-11T15:10:24.537Z,38.34
2023-02-11T15:12:51.078Z,38.78
2023-02-11T15:15:17.604Z,38.22
2023-02-11T15:17:44.143Z,37.81
2023-02-11T15:20:16.429Z,37.05
2023-02-11T15:22:42.945Z,37.20
2023-02-11T15:25:09.483Z,38.13
2023-02-11T15:27:35.916Z,38.09
2023-02-11T15:30:02.578Z,37.96
2023-02-11T15:32:31.276Z,38.99
2023-02-11T15:34:57.934Z,38.85
2023-02-11T15:37:24.521Z,39.80
2023-02-11T15:39:51.048Z,39.68
2023-02-11T15:42:17.631Z,38.15
2023-02-11T15:44:44.138Z,37.72
2023-02-11T15:47:10.659Z,36.59
2023-02-11T15:49:37.261Z,36.13
2023-02-11T15:52:03.675Z,36.30
2023-02-11T15:54:31.755Z,36.22
2023-02-11T15:56:58.302Z,35.99
2023-02-11T15:59:24.767Z,35.92
2023-02-11T16:01:51.305Z,34.64
2023-02-11T16:04:17.880Z,35.53
2023-02-11T16:06:45.619Z,34.62
2023-02-11T16:09:12.002Z,34.62
2023-02-11T16:11:38.408Z,33.18
2023-02-11T16:14:55.764Z,33.69
2023-02-11T16:16:56.189Z,33.49
2023-02-11T16:19:25.323Z,31.66
2023-02-11T16:21:52.235Z,32.41
2023-02-11T16:24:18.867Z,31.56
2023-02-11T16:26:49.690Z,31.56
2023-02-11T16:29:20.244Z,32.69
2023-02-11T16:32:09.361Z,31.53
2023-02-11T16:34:33.931Z,32.01
2023-02-11T16:37:01.423Z,31.71
2023-02-11T16:39:28.098Z,31.15
2023-02-11T16:42:02.244Z,31.52
2023-02-11T16:44:28.775Z,31.50
2023-02-11T16:46:55.609Z,31.27
2023-02-11T16:49:22.180Z,31.56
2023-02-11T16:51:48.740Z,31.47
2023-02-11T16:54:15.132Z,31.33
2023-02-11T16:56:42.596Z,30.08
2023-02-11T16:59:09.120Z,30.12
2023-02-11T17:01:35.605Z,30.39
2023-02-11T17:04:02.189Z,29.74
2023-02-11T17:06:29.779Z,29.65
2023-02-11T17:08:56.316Z,30.16
2023-02-11T17:11:22.780Z,30.01
2023-02-11T17:13:49.253Z,31.09
2023-02-11T17:16:15.768Z,30.74
2023-02-11T17:18:42.326Z,31.52
2023-02-11T17:21:08.784Z,38.92
2023-02-11T17:23:35.340Z,32.92
2023-02-11T17:26:01.880Z,30.85
2023-02-11T17:28:28.390Z,29.93
2023-02-11T17:30:55.026Z,28.98
2023-02-11T17:33:21.615Z,27.59
2023-02-11T17:35:51.127Z,27.43
2023-02-11T17:38:17.839Z,32.13
2023-02-11T17:40:44.338Z,31.72
2023-02-11T17:43:11.015Z,32.55
2023-02-11T17:45:37.581Z,31.43
2023-02-11T17:48:04.198Z,53.67
2023-02-11T17:50:30.683Z,37.67
2023-02-11T17:52:57.206Z,32.76
2023-02-11T17:55:23.670Z,30.98
2023-02-11T17:57:50.351Z,30.31
2023-02-11T18:00:17.785Z,33.74
2023-02-11T18:02:44.421Z,32.04
2023-02-11T18:05:13.730Z,29.45
2023-02-11T18:07:40.195Z,28.96
2023-02-11T18:10:06.685Z,26.11
2023-02-11T18:12:33.331Z,30.55
2023-02-11T18:14:59.812Z,31.81
2023-02-11T18:17:26.293Z,30.76
2023-02-11T18:19:52.729Z,29.25
2023-02-11T18:22:19.223Z,25.83
2023-02-11T18:24:45.622Z,23.51
2023-02-11T18:27:12.057Z,21.29
2023-02-11T18:29:38.460Z,19.63
2023-02-11T18:32:05.008Z,19.47
2023-02-11T18:34:31.516Z,20.58
2023-02-11T18:36:59.006Z,22.77
2023-02-11T18:39:25.770Z,25.98
2023-02-11T18:41:52.208Z,25.12
2023-02-11T18:44:18.615Z,21.18
2023-02-11T18:46:45.270Z,19.13
2023-02-11T18:49:11.662Z,19.42
2023-02-11T18:51:38.102Z,19.31
2023-02-11T18:54:04.485Z,19.01
2023-02-11T18:56:30.897Z,18.91
2023-02-11T18:58:57.318Z,23.11
2023-02-11T19:01:24.203Z,64.05
2023-02-11T19:03:50.801Z,53.36
2023-02-11T19:06:17.218Z,37.35
2023-02-11T19:08:43.599Z,37.70
2023-02-11T19:11:10.085Z,28.70
2023-02-11T19:13:37.474Z,22.23
2023-02-11T19:16:03.878Z,20.24
2023-02-11T19:18:30.320Z,19.22
2023-02-11T19:20:59.550Z,18.59
2023-02-11T19:23:25.950Z,16.95
2023-02-11T19:25:52.594Z,20.19
2023-02-11T19:28:19.253Z,20.31
2023-02-11T19:30:45.943Z,19.52
2023-02-11T19:33:12.445Z,21.41
2023-02-11T19:35:38.858Z,19.77
2023-02-11T19:38:05.654Z,16.96
2023-02-11T19:40:32.116Z,16.15
2023-02-11T19:42:58.568Z,16.16
2023-02-11T19:45:26.944Z,27.46
2023-02-11T19:47:53.609Z,42.25
2023-02-11T19:50:22.039Z,30.76
2023-02-11T19:52:48.476Z,19.40
2023-02-11T19:55:17.215Z,15.65
2023-02-11T19:57:43.695Z,18.37
2023-02-11T20:00:10.113Z,23.29
2023-02-11T20:02:36.506Z,25.08
2023-02-11T20:05:02.945Z,30.28
2023-02-11T20:07:29.313Z,36.99
2023-02-11T20:09:55.954Z,34.16
2023-02-11T20:12:22.386Z,30.04
2023-02-11T20:14:53.057Z,41.90
2023-02-11T20:17:19.477Z,30.00
2023-02-11T20:19:45.879Z,32.91
2023-02-11T20:22:14.975Z,35.24
2023-02-11T20:24:41.343Z,34.04
2023-02-11T20:27:07.747Z,36.20
2023-02-11T20:29:34.179Z,36.59
2023-02-11T20:32:00.866Z,31.97
2023-02-11T20:34:27.359Z,30.56
2023-02-11T20:36:53.793Z,28.63
2023-02-11T20:39:20.252Z,28.81
2023-02-11T20:41:46.782Z,26.64
2023-02-11T20:44:13.249Z,24.05
2023-02-11T20:46:39.761Z,23.55
2023-02-11T20:49:06.192Z,22.11
2023-02-11T20:51:32.603Z,22.95
2023-02-11T20:53:58.944Z,25.40
2023-02-11T20:56:25.397Z,28.25
2023-02-11T20:58:53.105Z,28.58
2023-02-11T21:01:19.494Z,29.76
2023-02-11T21:03:45.938Z,33.23
2023-02-11T21:06:12.355Z,32.72
2023-02-11T21:08:38.752Z,32.72
2023-02-11T21:11:05.221Z,32.16
2023-02-11T21:13:31.686Z,32.31
2023-02-11T21:15:58.606Z,27.70
2023-02-11T21:18:27.367Z,19.67
2023-02-11T21:20:53.797Z,18.57
2023-02-11T21:23:20.235Z,16.30
2023-02-11T21:25:46.663Z,13.80
2023-02-11T21:28:13.108Z,13.73
2023-02-11T21:30:39.579Z,13.24
2023-02-11T21:33:05.984Z,13.09
2023-02-11T21:35:32.432Z,12.74
2023-02-11T21:38:00.099Z,13.20
2023-02-11T21:40:26.480Z,13.12
2023-02-11T21:42:52.844Z,12.26
2023-02-11T21:45:19.340Z,12.21
2023-02-11T21:47:54.012Z,11.49
2023-02-11T21:50:20.474Z,11.56
2023-02-11T21:52:48.987Z,12.53
2023-02-11T21:55:15.385Z,13.50
2023-02-11T21:57:41.923Z,14.65
2023-02-11T22:00:08.425Z,15.20
2023-02-11T22:02:34.881Z,15.32
2023-02-11T22:05:01.465Z,16.09
2023-02-11T22:07:27.879Z,15.16
2023-02-11T22:09:54.266Z,14.31
2023-02-11T22:12:21.082Z,14.31
2023-02-11T22:14:47.453Z,14.58
2023-02-11T22:17:14.404Z,15.43
2023-02-11T22:19:40.882Z,16.90
2023-02-11T22:22:07.270Z,22.32
2023-02-11T22:24:33.816Z,34.83
2023-02-11T22:27:01.522Z,29.41
2023-02-11T22:29:27.952Z,28.12
2023-02-11T22:31:54.510Z,29.65
2023-02-11T22:34:20.978Z,30.22
2023-02-11T22:36:47.463Z,24.64
2023-02-11T22:39:13.889Z,23.21
2023-02-11T22:41:40.421Z,21.84
2023-02-11T22:44:12.575Z,20.33
2023-02-11T22:46:39.026Z,17.77
2023-02-11T22:49:05.462Z,16.14
2023-02-11T22:51:33.298Z,17.41
2023-02-11T22:54:01.791Z,17.70
2023-02-11T22:56:28.248Z,16.26
2023-02-11T22:58:54.714Z,16.22
2023-02-11T23:01:21.365Z,17.03
2023-02-11T23:03:47.767Z,17.47
2023-02-11T23:06:14.217Z,17.05
2023-02-11T23:08:40.820Z,16.16
2023-02-11T23:11:07.263Z,14.68
2023-02-11T23:13:33.762Z,14.38
2023-02-11T23:16:00.450Z,16.30
2023-02-11T23:18:28.327Z,18.50
2023-02-11T23:20:54.770Z,17.45
2023-02-11T23:23:21.381Z,14.52
2023-02-11T23:25:47.836Z,11.81
2023-02-11T23:28:14.344Z,11.03
2023-02-11T23:30:40.765Z,10.57
2023-02-11T23:33:07.217Z,11.62
2023-02-11T23:35:33.675Z,11.41
2023-02-11T23:38:00.072Z,11.80
2023-02-11T23:40:26.508Z,12.81
2023-02-11T23:42:52.930Z,17.02
2023-02-11T23:45:19.415Z,17.78
2023-02-11T23:47:45.913Z,18.29
2023-02-11T23:50:12.400Z,15.79
2023-02-11T23:52:39.017Z,17.09
2023-02-11T23:55:05.382Z,17.59
2023-02-11T23:57:31.836Z,18.30
2023-02-11T23:59:58.215Z,19.54
